Terminal Aerodrome Forecast
Issued by NWS Louisville, KY

Current Version | Previous Version | Text Only | Print | Product List | Glossary On
Versions: 1 2 3 4 5 6 7 8 9 10 11 12
000
FTUS43 KLMK 191100
TAFLEX
TAF
KLEX 191120Z 1912/2012 11010KT P6SM -SHRA BKN050
     FM191400 13009KT 6SM -SHRA BR BKN015
     FM191600 13008KT 6SM -SHRA BR VCTS BKN008 OVC015CB
     FM192000 17012G21KT P6SM VCSH BKN015
     FM192300 20012G22KT P6SM VCTS BKN025CB
     FM200300 20010KT P6SM BKN025=

USA.gov is the U.S. government's official web portal to all federal, state and local government web resources and services.